createdAt,value
2018-04-06T00:00:20.004Z,87.88
2018-04-06T00:01:20.152Z,88.02
2018-04-06T00:02:20.298Z,87.79
2018-04-06T00:03:20.445Z,88.36
2018-04-06T00:04:20.590Z,88.64
2018-04-06T00:05:20.735Z,88.83
2018-04-06T00:06:20.881Z,89.31
2018-04-06T00:07:21.026Z,89.02
2018-04-06T00:08:21.173Z,89.31
2018-04-06T00:09:21.319Z,89.59
2018-04-06T00:10:21.463Z,89.40
2018-04-06T00:11:21.606Z,89.35
2018-04-06T00:12:21.752Z,88.45
2018-04-06T00:13:21.895Z,88.45
2018-04-06T00:14:22.040Z,88.36
2018-04-06T00:15:22.184Z,88.07
2018-04-06T00:16:22.333Z,87.70
2018-04-06T00:17:22.476Z,88.07
2018-04-06T00:18:22.623Z,87.88
2018-04-06T00:19:22.764Z,87.79
2018-04-06T00:20:22.911Z,87.88
2018-04-06T00:21:23.055Z,87.88
2018-04-06T00:22:23.197Z,87.60
2018-04-06T00:23:23.343Z,87.32
2018-04-06T00:24:23.490Z,88.64
2018-04-06T00:25:23.636Z,88.83
2018-04-06T00:26:23.790Z,89.21
2018-04-06T00:27:23.955Z,89.12
2018-04-06T00:28:24.071Z,89.31
2018-04-06T00:29:24.212Z,89.40
2018-04-06T00:30:24.354Z,88.64
2018-04-06T00:31:24.501Z,89.50
2018-04-06T00:32:24.644Z,89.87
2018-04-06T00:33:24.791Z,89.87
2018-04-06T00:34:24.933Z,90.44
2018-04-06T00:35:25.080Z,91.20
2018-04-06T00:36:25.226Z,90.82
2018-04-06T00:37:25.371Z,90.72
2018-04-06T00:38:25.516Z,90.82
2018-04-06T00:39:25.660Z,91.10
2018-04-06T00:40:25.806Z,91.77
2018-04-06T00:41:25.950Z,91.53
2018-04-06T00:42:26.095Z,91.77
2018-04-06T00:43:26.238Z,91.34
2018-04-06T00:44:26.388Z,91.72
2018-04-06T00:45:26.533Z,91.81
2018-04-06T00:46:26.677Z,91.15
2018-04-06T00:47:26.851Z,91.24
2018-04-06T00:48:26.969Z,91.53
2018-04-06T00:49:27.111Z,91.43
2018-04-06T00:50:27.256Z,91.53
2018-04-06T00:51:27.403Z,91.53
2018-04-06T00:52:27.550Z,90.72
2018-04-06T00:53:27.689Z,90.96
2018-04-06T00:54:27.836Z,90.77
2018-04-06T00:55:27.978Z,90.44
2018-04-06T00:56:28.124Z,90.25
2018-04-06T00:57:28.271Z,90.06
2018-04-06T00:58:28.415Z,90.06
2018-04-06T00:59:28.557Z,90.44
2018-04-06T01:00:28.703Z,89.97
2018-04-06T01:01:28.850Z,90.25
2018-04-06T01:02:28.996Z,90.25
2018-04-06T01:03:29.144Z,89.78
2018-04-06T01:04:29.289Z,89.78
2018-04-06T01:05:29.433Z,89.87
2018-04-06T01:06:29.579Z,89.83
2018-04-06T01:07:29.725Z,89.92
2018-04-06T01:08:29.870Z,90.20
2018-04-06T01:09:30.017Z,90.39
2018-04-06T01:10:30.160Z,90.63
2018-04-06T01:11:30.303Z,90.30
2018-04-06T01:12:30.447Z,90.01
2018-04-06T01:13:30.598Z,89.97
2018-04-06T01:14:30.736Z,89.87
2018-04-06T01:15:30.875Z,90.16
2018-04-06T01:16:31.022Z,89.69
2018-04-06T01:17:31.165Z,89.97
2018-04-06T01:18:31.313Z,89.69
2018-04-06T01:19:31.464Z,90.06
2018-04-06T01:20:31.602Z,90.39
2018-04-06T01:21:31.745Z,89.73
2018-04-06T01:22:31.888Z,89.87
2018-04-06T01:23:32.036Z,89.26
2018-04-06T01:24:32.179Z,89.26
2018-04-06T01:25:32.324Z,89.92
2018-04-06T01:26:32.471Z,89.64
2018-04-06T01:27:32.609Z,90.11
2018-04-06T01:28:32.757Z,90.39
2018-04-06T01:29:32.898Z,90.68
2018-04-06T01:30:33.041Z,91.34
2018-04-06T01:31:33.187Z,91.10
2018-04-06T01:32:33.331Z,90.68
2018-04-06T01:33:33.479Z,90.30
2018-04-06T01:34:33.621Z,90.39
2018-04-06T01:35:33.766Z,90.68
2018-04-06T01:36:33.910Z,90.77
2018-04-06T01:37:34.056Z,90.77
2018-04-06T01:38:34.202Z,91.34
2018-04-06T01:39:34.344Z,91.05
2018-04-06T01:40:34.487Z,90.96
2018-04-06T01:41:34.632Z,91.53
2018-04-06T01:42:34.777Z,91.72
2018-04-06T01:43:34.920Z,91.91
2018-04-06T01:44:35.067Z,92.38
2018-04-06T01:45:35.211Z,92.00
2018-04-06T01:46:35.355Z,92.00
2018-04-06T01:47:35.500Z,91.72
2018-04-06T01:48:35.646Z,91.05
2018-04-06T01:49:35.791Z,90.30
2018-04-06T01:50:35.935Z,90.68
2018-04-06T01:51:36.081Z,90.11
2018-04-06T01:52:36.225Z,90.20
2018-04-06T01:53:36.365Z,90.30
2018-04-06T01:54:36.509Z,90.30
2018-04-06T01:55:36.655Z,90.30
2018-04-06T01:56:36.799Z,90.68
2018-04-06T01:57:36.946Z,90.49
2018-04-06T01:58:37.088Z,90.77
2018-04-06T01:59:37.232Z,90.77
2018-04-06T02:00:37.376Z,90.86
2018-04-06T02:01:37.522Z,90.96
2018-04-06T02:02:37.665Z,90.96
2018-04-06T02:03:37.811Z,91.24
2018-04-06T02:04:37.956Z,90.49
2018-04-06T02:05:38.101Z,91.05
2018-04-06T02:06:38.243Z,91.53
2018-04-06T02:07:38.390Z,91.62
2018-04-06T02:08:38.538Z,92.10
2018-04-06T02:09:38.681Z,92.94
2018-04-06T02:10:38.824Z,92.76
2018-04-06T02:11:38.972Z,91.91
2018-04-06T02:12:39.120Z,92.19
2018-04-06T02:13:39.270Z,91.34
2018-04-06T02:14:39.406Z,91.53
2018-04-06T02:15:39.555Z,91.53
2018-04-06T02:16:39.697Z,91.91
2018-04-06T02:17:39.838Z,92.00
2018-04-06T02:18:39.984Z,92.00
2018-04-06T02:19:40.130Z,92.10
2018-04-06T02:20:40.272Z,92.66
2018-04-06T02:21:40.414Z,92.38
2018-04-06T02:22:40.562Z,92.38
2018-04-06T02:23:40.705Z,92.66
2018-04-06T02:24:40.946Z,92.00
2018-04-06T02:25:40.993Z,92.10
2018-04-06T02:26:41.139Z,92.47
2018-04-06T02:27:41.279Z,92.29
2018-04-06T02:28:41.430Z,91.91
2018-04-06T02:29:41.571Z,91.72
2018-04-06T02:30:41.716Z,91.53
2018-04-06T02:31:41.865Z,91.53
2018-04-06T02:32:42.007Z,90.86
2018-04-06T02:33:42.149Z,91.72
2018-04-06T02:34:42.291Z,91.15
2018-04-06T02:35:42.437Z,91.72
2018-04-06T02:36:42.578Z,91.62
2018-04-06T02:37:42.722Z,91.24
2018-04-06T02:38:42.866Z,91.34
2018-04-06T02:39:43.009Z,91.53
2018-04-06T02:40:43.154Z,90.68
2018-04-06T02:41:43.299Z,90.86
2018-04-06T02:42:43.440Z,91.05
2018-04-06T02:43:43.617Z,91.15
2018-04-06T02:44:43.733Z,91.34
2018-04-06T02:45:43.875Z,91.62
2018-04-06T02:46:44.018Z,90.86
2018-04-06T02:47:44.161Z,90.58
2018-04-06T02:48:44.305Z,91.05
2018-04-06T02:49:44.449Z,90.96
2018-04-06T02:50:44.596Z,91.05
2018-04-06T02:51:44.739Z,90.77
2018-04-06T02:52:44.884Z,91.53
2018-04-06T02:53:45.026Z,91.62
2018-04-06T02:54:45.173Z,91.48
2018-04-06T02:55:45.318Z,91.72
2018-04-06T02:56:45.458Z,91.10
2018-04-06T02:57:45.602Z,91.58
2018-04-06T02:58:45.745Z,92.14
2018-04-06T02:59:45.890Z,91.96
2018-04-06T03:00:46.033Z,92.61
2018-04-06T03:01:46.179Z,92.71
2018-04-06T03:02:46.320Z,92.71
2018-04-06T03:03:46.465Z,92.43
2018-04-06T03:04:46.607Z,92.43
2018-04-06T03:05:46.756Z,92.71
2018-04-06T03:06:46.899Z,92.80
2018-04-06T03:07:47.040Z,92.90
2018-04-06T03:08:47.182Z,92.43
2018-04-06T03:09:47.333Z,92.05
2018-04-06T03:10:47.472Z,91.86
2018-04-06T03:11:47.622Z,92.24
2018-04-06T03:12:47.762Z,91.20
2018-04-06T03:13:47.903Z,92.05
2018-04-06T03:14:48.048Z,91.96
2018-04-06T03:15:48.191Z,92.24
2018-04-06T03:16:48.336Z,91.86
2018-04-06T03:17:48.478Z,91.39
2018-04-06T03:18:48.623Z,91.29
2018-04-06T03:19:48.768Z,91.10
2018-04-06T03:20:48.910Z,91.58
2018-04-06T03:21:49.053Z,91.77
2018-04-06T03:22:49.200Z,92.24
2018-04-06T03:23:49.341Z,92.14
2018-04-06T03:24:49.483Z,92.05
2018-04-06T03:25:49.623Z,91.96
2018-04-06T03:26:49.768Z,92.33
2018-04-06T03:27:49.912Z,92.05
2018-04-06T03:28:50.060Z,92.05
2018-04-06T03:29:50.202Z,92.24
2018-04-06T03:30:50.347Z,92.05
2018-04-06T03:31:50.492Z,92.61
2018-04-06T03:32:50.636Z,92.43
2018-04-06T03:33:50.777Z,92.61
2018-04-06T03:34:50.919Z,92.61
2018-04-06T03:35:51.068Z,92.71
2018-04-06T03:36:51.209Z,91.96
2018-04-06T03:37:51.353Z,91.58
2018-04-06T03:38:51.498Z,91.29
2018-04-06T03:39:51.643Z,91.96
2018-04-06T03:40:51.786Z,91.48
2018-04-06T03:41:51.932Z,91.67
2018-04-06T03:42:52.076Z,91.58
2018-04-06T03:43:52.217Z,91.01
2018-04-06T03:44:52.362Z,91.01
2018-04-06T03:45:52.508Z,90.91
2018-04-06T03:46:52.649Z,90.73
2018-04-06T03:47:52.794Z,90.44
2018-04-06T03:48:52.938Z,90.25
2018-04-06T03:49:53.080Z,90.25
2018-04-06T03:50:53.228Z,90.54
2018-04-06T03:51:53.368Z,90.35
2018-04-06T03:52:53.514Z,90.16
2018-04-06T03:53:53.656Z,90.25
2018-04-06T03:54:53.802Z,90.25
2018-04-06T03:55:53.945Z,90.35
2018-04-06T03:56:54.095Z,90.35
2018-04-06T03:57:54.235Z,90.06
2018-04-06T03:58:54.378Z,90.16
2018-04-06T03:59:54.523Z,91.48
2018-04-06T04:00:54.666Z,91.77
2018-04-06T04:01:54.806Z,92.05
2018-04-06T04:02:54.952Z,92.24
2018-04-06T04:03:55.095Z,92.14
2018-04-06T04:04:55.239Z,91.96
2018-04-06T04:05:55.384Z,91.58
2018-04-06T04:06:55.525Z,91.58
2018-04-06T04:07:55.668Z,91.20
2018-04-06T04:08:55.813Z,91.39
2018-04-06T04:09:55.956Z,91.29
2018-04-06T04:10:56.098Z,91.39
2018-04-06T04:11:56.247Z,91.48
2018-04-06T04:12:56.387Z,91.48
2018-04-06T04:13:56.530Z,91.20
2018-04-06T04:14:56.672Z,92.05
2018-04-06T04:15:56.819Z,91.48
2018-04-06T04:16:56.964Z,91.58
2018-04-06T04:17:57.107Z,91.39
2018-04-06T04:18:57.254Z,91.39
2018-04-06T04:19:57.396Z,92.14
2018-04-06T04:20:57.539Z,92.71
2018-04-06T04:21:57.683Z,92.14
2018-04-06T04:22:57.827Z,92.14
2018-04-06T04:23:57.969Z,91.96
2018-04-06T04:24:58.114Z,91.77
2018-04-06T04:25:58.257Z,92.14
2018-04-06T04:26:58.403Z,91.58
2018-04-06T04:27:58.554Z,91.29
2018-04-06T04:28:58.692Z,91.58
2018-04-06T04:29:58.833Z,91.77
2018-04-06T04:30:58.970Z,91.86
2018-04-06T04:31:59.114Z,91.58
2018-04-06T04:32:59.254Z,91.67
2018-04-06T04:33:59.398Z,91.77
2018-04-06T04:34:59.543Z,91.29
2018-04-06T04:35:59.686Z,90.73
2018-04-06T04:36:59.828Z,90.73
2018-04-06T04:37:59.974Z,91.58
2018-04-06T04:39:00.122Z,92.99
2018-04-06T04:40:00.312Z,92.14
2018-04-06T04:41:00.406Z,92.43
2018-04-06T04:42:00.548Z,92.61
2018-04-06T04:43:00.697Z,92.33
2018-04-06T04:44:00.839Z,92.33
2018-04-06T04:45:00.980Z,92.61
2018-04-06T04:46:01.124Z,92.71
2018-04-06T04:47:01.270Z,92.71
2018-04-06T04:48:01.418Z,92.14
2018-04-06T04:49:01.558Z,92.61
2018-04-06T04:50:01.699Z,92.05
2018-04-06T04:51:01.841Z,91.77
2018-04-06T04:52:01.985Z,91.58
2018-04-06T04:53:02.130Z,91.86
2018-04-06T04:54:02.274Z,91.29
2018-04-06T04:55:02.419Z,91.48
2018-04-06T04:56:02.567Z,91.29
2018-04-06T04:57:02.708Z,91.77
2018-04-06T04:58:02.851Z,91.67
2018-04-06T04:59:02.994Z,91.96
2018-04-06T05:00:03.138Z,92.52
2018-04-06T05:01:03.284Z,92.99
2018-04-06T05:02:03.423Z,92.99
2018-04-06T05:03:03.568Z,92.99
2018-04-06T05:04:03.711Z,92.90
2018-04-06T05:05:03.856Z,92.52
2018-04-06T05:06:04.000Z,92.71
2018-04-06T05:07:04.145Z,92.99
2018-04-06T05:08:04.287Z,93.84
2018-04-06T05:09:04.432Z,93.56
2018-04-06T05:10:04.576Z,93.75
2018-04-06T05:11:04.717Z,93.56
2018-04-06T05:12:04.864Z,93.84
2018-04-06T05:13:05.012Z,93.37
2018-04-06T05:14:05.155Z,93.18
2018-04-06T05:15:05.302Z,92.94
2018-04-06T05:16:05.445Z,92.76
2018-04-06T05:17:05.590Z,92.57
2018-04-06T05:18:05.735Z,92.43
2018-04-06T05:19:05.880Z,92.71
2018-04-06T05:20:06.024Z,92.71
2018-04-06T05:21:06.171Z,92.61
2018-04-06T05:22:06.330Z,93.18
2018-04-06T05:23:06.461Z,93.04
2018-04-06T05:24:06.606Z,93.23
2018-04-06T05:25:06.750Z,92.94
2018-04-06T05:26:06.897Z,93.04
2018-04-06T05:27:07.037Z,93.32
2018-04-06T05:28:07.184Z,93.13
2018-04-06T05:29:07.336Z,93.04
2018-04-06T05:30:07.474Z,92.66
2018-04-06T05:31:07.617Z,92.76
2018-04-06T05:32:07.762Z,92.76
2018-04-06T05:33:07.903Z,93.13
2018-04-06T05:34:08.048Z,92.57
2018-04-06T05:35:08.197Z,92.66
2018-04-06T05:36:08.337Z,92.38
2018-04-06T05:37:08.481Z,92.76
2018-04-06T05:38:08.632Z,92.66
2018-04-06T05:39:08.773Z,92.66
2018-04-06T05:40:08.917Z,92.19
2018-04-06T05:41:09.061Z,92.19
2018-04-06T05:42:09.208Z,91.62
2018-04-06T05:43:09.353Z,91.43
2018-04-06T05:44:09.506Z,91.01
2018-04-06T05:45:09.641Z,90.72
2018-04-06T05:46:09.788Z,90.91
2018-04-06T05:47:09.934Z,91.01
2018-04-06T05:48:10.079Z,90.72
2018-04-06T05:49:10.224Z,90.39
2018-04-06T05:50:10.369Z,90.96
2018-04-06T05:51:10.511Z,91.34
2018-04-06T05:52:10.656Z,92.10
2018-04-06T05:53:10.809Z,91.43
2018-04-06T05:54:10.946Z,91.72
2018-04-06T05:55:11.089Z,91.86
2018-04-06T05:56:11.235Z,91.67
2018-04-06T05:57:11.378Z,90.91
2018-04-06T05:58:11.526Z,90.63
2018-04-06T05:59:11.669Z,90.44
2018-04-06T06:00:11.813Z,90.72
2018-04-06T06:01:11.959Z,90.82
2018-04-06T06:02:12.103Z,90.25
2018-04-06T06:03:12.244Z,89.12
2018-04-06T06:04:12.390Z,89.97
2018-04-06T06:05:12.536Z,90.63
2018-04-06T06:06:12.686Z,90.86
2018-04-06T06:07:12.828Z,91.48
2018-04-06T06:08:12.975Z,91.58
2018-04-06T06:09:13.122Z,90.91
2018-04-06T06:10:13.262Z,90.63
2018-04-06T06:11:13.405Z,91.01
2018-04-06T06:12:13.551Z,91.39
2018-04-06T06:13:13.697Z,90.53
2018-04-06T06:14:13.846Z,90.63
2018-04-06T06:15:13.989Z,90.72
2018-04-06T06:16:14.136Z,90.72
2018-04-06T06:17:14.283Z,90.91
2018-04-06T06:18:14.427Z,90.44
2018-04-06T06:19:14.574Z,89.87
2018-04-06T06:20:14.718Z,89.78
2018-04-06T06:21:14.862Z,89.59
2018-04-06T06:22:15.016Z,88.93
2018-04-06T06:23:15.200Z,88.45
2018-04-06T06:24:15.301Z,89.02
2018-04-06T06:25:15.445Z,89.02
2018-04-06T06:26:15.592Z,89.31
2018-04-06T06:27:15.736Z,89.21
2018-04-06T06:28:15.883Z,88.64
2018-04-06T06:29:16.043Z,88.26
2018-04-06T06:30:16.175Z,87.70
2018-04-06T06:31:16.322Z,87.88
2018-04-06T06:32:16.466Z,87.79
2018-04-06T06:33:16.610Z,88.07
2018-04-06T06:34:16.753Z,88.17
2018-04-06T06:35:16.900Z,88.26
2018-04-06T06:36:17.046Z,87.79
2018-04-06T06:37:17.192Z,88.17
2018-04-06T06:38:17.339Z,87.23
2018-04-06T06:39:17.484Z,87.41
2018-04-06T06:40:17.627Z,87.17
2018-04-06T06:41:17.778Z,87.41
2018-04-06T06:42:17.920Z,87.23
2018-04-06T06:43:18.069Z,87.27
2018-04-06T06:44:18.212Z,87.27
2018-04-06T06:45:18.363Z,87.46
2018-04-06T06:46:18.504Z,86.79
2018-04-06T06:47:18.650Z,86.60
2018-04-06T06:48:18.817Z,85.47
2018-04-06T06:49:18.942Z,85.57
2018-04-06T06:50:19.093Z,85.66
2018-04-06T06:51:19.234Z,85.57
2018-04-06T06:52:19.378Z,85.38
2018-04-06T06:53:19.521Z,85.75
2018-04-06T06:54:19.719Z,85.66
2018-04-06T06:55:19.814Z,85.94
2018-04-06T06:56:19.962Z,86.41
2018-04-06T06:57:20.107Z,86.41
2018-04-06T06:58:20.259Z,87.27
2018-04-06T06:59:20.405Z,87.21
2018-04-06T07:00:20.552Z,86.83
2018-04-06T07:01:20.697Z,86.27
2018-04-06T07:02:20.846Z,85.80
2018-04-06T07:03:20.994Z,85.42
2018-04-06T07:04:21.135Z,85.51
2018-04-06T07:05:21.280Z,86.74
2018-04-06T07:06:21.424Z,86.79
2018-04-06T07:07:21.573Z,86.74
2018-04-06T07:08:21.721Z,86.27
2018-04-06T07:09:21.861Z,86.83
2018-04-06T07:10:22.015Z,85.89
2018-04-06T07:11:22.187Z,85.51
2018-04-06T07:12:22.314Z,86.08
2018-04-06T07:13:22.445Z,85.51
2018-04-06T07:14:22.590Z,84.47
2018-04-06T07:15:22.777Z,84.00
2018-04-06T07:16:22.878Z,83.71
2018-04-06T07:17:23.018Z,83.81
2018-04-06T07:18:23.177Z,84.28
2018-04-06T07:19:23.282Z,83.71
2018-04-06T07:20:23.446Z,84.19
2018-04-06T07:21:23.585Z,83.43
2018-04-06T07:22:23.733Z,83.90
2018-04-06T07:23:34.802Z,83.62
2018-04-06T07:24:23.984Z,83.37
2018-04-06T07:25:24.096Z,82.71
2018-04-06T07:26:24.246Z,82.52
2018-04-06T07:27:24.404Z,82.90
2018-04-06T07:28:24.549Z,82.62
2018-04-06T07:29:24.707Z,82.24
2018-04-06T07:30:24.805Z,81.86
2018-04-06T07:31:25.026Z,82.90
2018-04-06T07:32:25.116Z,82.71
2018-04-06T07:33:25.231Z,82.71
2018-04-06T07:34:25.362Z,82.14
2018-04-06T07:35:25.521Z,81.95
2018-04-06T07:36:25.656Z,81.29
2018-04-06T07:37:25.793Z,81.86
2018-04-06T07:38:25.941Z,82.33
2018-04-06T07:39:26.083Z,82.52
2018-04-06T07:40:26.228Z,82.90
2018-04-06T07:41:26.377Z,82.71
2018-04-06T07:42:26.523Z,83.09
2018-04-06T07:43:26.669Z,82.14
2018-04-06T07:44:26.844Z,81.86
2018-04-06T07:45:26.961Z,82.14
2018-04-06T07:46:27.118Z,81.48
2018-04-06T07:47:27.262Z,81.57
2018-04-06T07:48:27.406Z,81.67
2018-04-06T07:49:27.555Z,81.24
2018-04-06T07:50:27.700Z,81.29
2018-04-06T07:51:27.849Z,81.24
2018-04-06T07:52:27.987Z,80.86
2018-04-06T07:53:28.133Z,80.38
2018-04-06T07:54:28.279Z,80.48
2018-04-06T07:55:28.427Z,80.38
2018-04-06T07:56:28.575Z,79.53
2018-04-06T07:57:28.720Z,79.82
2018-04-06T07:58:28.868Z,80.38
2018-04-06T07:59:29.021Z,79.34
2018-04-06T08:00:29.168Z,78.49
2018-04-06T08:01:29.316Z,79.34
2018-04-06T08:02:29.462Z,78.87
2018-04-06T08:03:29.607Z,78.49
2018-04-06T08:04:29.756Z,78.58
2018-04-06T08:05:29.903Z,77.83
2018-04-06T08:06:30.048Z,76.97
2018-04-06T08:07:30.196Z,77.35
2018-04-06T08:08:30.344Z,77.54
2018-04-06T08:09:30.499Z,77.29
2018-04-06T08:10:30.644Z,76.73
2018-04-06T08:11:30.785Z,76.92
2018-04-06T08:12:30.932Z,76.92
2018-04-06T08:13:31.079Z,77.39
2018-04-06T08:14:31.226Z,76.63
2018-04-06T08:15:31.372Z,75.68
2018-04-06T08:16:31.522Z,74.73
2018-04-06T08:17:31.671Z,76.20
2018-04-06T08:18:31.819Z,76.57
2018-04-06T08:19:31.966Z,75.05
2018-04-06T08:20:32.114Z,75.05
2018-04-06T08:21:32.261Z,74.20
2018-04-06T08:22:32.412Z,74.30
2018-04-06T08:23:32.558Z,74.20
2018-04-06T08:24:32.712Z,73.25
2018-04-06T08:25:32.855Z,73.25
2018-04-06T08:26:33.006Z,72.97
2018-04-06T08:27:33.154Z,72.21
2018-04-06T08:28:33.301Z,72.11
2018-04-06T08:29:33.451Z,72.59
2018-04-06T08:30:33.602Z,72.40
2018-04-06T08:31:33.746Z,72.11
2018-04-06T08:32:33.895Z,71.58
2018-04-06T08:33:34.042Z,71.77
2018-04-06T08:34:34.190Z,71.39
2018-04-06T08:35:34.335Z,70.82
2018-04-06T08:36:34.484Z,71.20
2018-04-06T08:37:34.637Z,70.63
2018-04-06T08:38:34.784Z,70.82
2018-04-06T08:39:34.932Z,71.48
2018-04-06T08:40:35.083Z,71.96
2018-04-06T08:41:35.229Z,70.06
2018-04-06T08:42:35.380Z,69.68
2018-04-06T08:43:35.527Z,69.59
2018-04-06T08:44:35.676Z,68.86
2018-04-06T08:45:35.825Z,67.53
2018-04-06T08:46:35.975Z,67.06
2018-04-06T08:47:36.130Z,67.91
2018-04-06T08:48:36.274Z,67.44
2018-04-06T08:49:36.419Z,66.30
2018-04-06T08:50:36.571Z,66.11
2018-04-06T08:51:36.718Z,66.11
2018-04-06T08:52:36.867Z,64.78
2018-04-06T08:53:37.015Z,64.30
2018-04-06T08:54:37.214Z,64.02
2018-04-06T08:55:37.314Z,63.67
2018-04-06T08:56:37.469Z,63.86
2018-04-06T08:57:37.616Z,63.57
2018-04-06T08:58:37.762Z,63.20
2018-04-06T08:59:37.913Z,63.29
2018-04-06T09:00:38.064Z,63.20
2018-04-06T09:01:38.213Z,62.81
2018-04-06T09:02:38.360Z,63.10
2018-04-06T09:03:38.515Z,62.62
2018-04-06T09:04:38.663Z,59.39
2018-04-06T09:05:38.811Z,57.90
2018-04-06T09:06:38.959Z,56.76
2018-04-06T09:07:39.107Z,57.14
2018-04-06T09:08:39.259Z,58.00
2018-04-06T09:09:39.407Z,58.57
2018-04-06T09:10:39.559Z,56.85
2018-04-06T09:11:39.710Z,53.91
2018-04-06T09:12:39.871Z,52.58
2018-04-06T09:13:40.025Z,51.53
2018-04-06T09:14:40.170Z,52.48
2018-04-06T09:15:40.307Z,52.20
2018-04-06T09:16:40.460Z,51.65
2018-04-06T09:17:40.612Z,52.13
2018-04-06T09:18:40.760Z,51.84
2018-04-06T09:19:40.935Z,51.08
2018-04-06T09:20:41.083Z,50.99
2018-04-06T09:21:41.237Z,50.42
2018-04-06T09:22:41.387Z,49.94
2018-04-06T09:23:41.535Z,49.56
2018-04-06T09:24:41.687Z,50.04
2018-04-06T09:25:41.836Z,49.85
2018-04-06T09:26:41.986Z,49.46
2018-04-06T09:27:42.136Z,50.25
2018-04-06T09:28:42.286Z,50.54
2018-04-06T09:29:42.440Z,51.10
2018-04-06T09:30:42.592Z,49.68
2018-04-06T09:31:42.737Z,49.96
2018-04-06T09:32:42.887Z,49.94
2018-04-06T09:33:43.039Z,50.73
2018-04-06T09:34:43.188Z,49.68
2018-04-06T09:35:43.338Z,51.10
2018-04-06T09:36:43.488Z,52.53
2018-04-06T09:37:43.638Z,51.20
2018-04-06T09:38:43.789Z,50.73
2018-04-06T09:39:43.937Z,50.44
2018-04-06T09:40:44.088Z,50.73
2018-04-06T09:41:44.239Z,51.97
2018-04-06T09:42:44.388Z,52.06
2018-04-06T09:43:44.538Z,51.49
2018-04-06T09:44:44.689Z,51.78
2018-04-06T09:45:44.844Z,50.44
2018-04-06T09:46:44.988Z,50.82
2018-04-06T09:47:45.137Z,50.54
2018-04-06T09:48:45.288Z,49.49
2018-04-06T09:49:45.437Z,49.96
2018-04-06T09:50:45.588Z,50.15
2018-04-06T09:51:45.738Z,50.35
2018-04-06T09:52:45.889Z,50.35
2018-04-06T09:53:46.040Z,49.32
2018-04-06T09:54:46.190Z,48.27
2018-04-06T09:55:46.340Z,47.42
2018-04-06T09:56:46.492Z,47.32
2018-04-06T09:57:46.644Z,46.18
2018-04-06T09:58:46.796Z,46.56
2018-04-06T09:59:46.946Z,46.28
2018-04-06T10:00:47.095Z,47.80
2018-04-06T10:01:47.247Z,47.71
2018-04-06T10:02:47.397Z,47.63
2018-04-06T10:03:47.550Z,47.44
2018-04-06T10:04:47.700Z,47.82
2018-04-06T10:05:47.853Z,47.44
2018-04-06T10:06:48.001Z,46.97
2018-04-06T10:07:48.153Z,46.20
2018-04-06T10:08:48.303Z,46.11
2018-04-06T10:09:48.457Z,46.01
2018-04-06T10:10:48.614Z,46.30
2018-04-06T10:11:48.761Z,46.20
2018-04-06T10:12:48.913Z,45.84
2018-04-06T10:13:49.064Z,46.51
2018-04-06T10:14:49.215Z,45.75
2018-04-06T10:15:49.366Z,45.75
2018-04-06T10:16:49.517Z,44.80
2018-04-06T10:17:49.670Z,43.84
2018-04-06T10:18:49.817Z,43.75
2018-04-06T10:19:49.974Z,42.89
2018-04-06T10:20:50.123Z,42.70
2018-04-06T10:21:50.281Z,40.70
2018-04-06T10:22:50.422Z,41.08
2018-04-06T10:23:50.574Z,40.99
2018-04-06T10:24:50.725Z,40.70
2018-04-06T10:25:50.875Z,41.10
2018-04-06T10:26:51.027Z,40.03
2018-04-06T10:27:51.179Z,40.32
2018-04-06T10:28:51.331Z,40.80
2018-04-06T10:29:51.483Z,40.32
2018-04-06T10:30:51.633Z,38.70
2018-04-06T10:31:51.784Z,39.67
2018-04-06T10:32:51.938Z,39.48
2018-04-06T10:33:52.091Z,39.86
2018-04-06T10:34:52.242Z,38.91
2018-04-06T10:35:52.394Z,37.57
2018-04-06T10:36:52.544Z,37.57
2018-04-06T10:37:52.695Z,37.76
2018-04-06T10:38:52.846Z,37.10
2018-04-06T10:39:52.997Z,36.33
2018-04-06T10:40:53.152Z,36.90
2018-04-06T10:41:53.306Z,37.49
2018-04-06T10:42:53.453Z,35.95
2018-04-06T10:43:53.607Z,36.07
2018-04-06T10:44:53.759Z,34.92
2018-04-06T10:45:53.913Z,35.68
2018-04-06T10:46:54.068Z,35.68
2018-04-06T10:47:54.219Z,36.73
2018-04-06T10:48:54.448Z,36.37
2018-04-06T10:49:54.634Z,32.92
2018-04-06T10:50:54.824Z,31.87
2018-04-06T10:51:54.862Z,31.01
2018-04-06T10:52:55.060Z,31.10
2018-04-06T10:53:55.151Z,29.38
2018-04-06T10:54:55.296Z,29.00
2018-04-06T10:55:55.448Z,27.09
2018-04-06T10:56:55.597Z,27.95
2018-04-06T10:57:55.741Z,28.53
2018-04-06T10:58:55.905Z,28.62
2018-04-06T10:59:56.043Z,28.64
2018-04-06T11:00:56.195Z,25.68
2018-04-06T11:01:56.406Z,25.96
2018-04-06T11:02:56.498Z,26.73
2018-04-06T11:03:56.653Z,25.29
2018-04-06T11:04:56.800Z,24.82
2018-04-06T11:05:57.018Z,24.82
2018-04-06T11:06:57.098Z,25.69
2018-04-06T11:07:57.258Z,26.15
2018-04-06T11:08:57.410Z,25.79
2018-04-06T11:09:57.561Z,26.64
2018-04-06T11:10:57.713Z,26.35
2018-04-06T11:11:57.864Z,25.01
2018-04-06T11:12:58.016Z,26.35
2018-04-06T11:13:58.169Z,26.82
2018-04-06T11:14:58.321Z,25.49
2018-04-06T11:15:58.478Z,25.68
2018-04-06T11:16:58.639Z,25.49
2018-04-06T11:17:58.773Z,25.68
2018-04-06T11:18:58.922Z,24.64
2018-04-06T11:19:59.061Z,25.88
2018-04-06T11:20:59.200Z,25.88
2018-04-06T11:21:59.361Z,25.69
2018-04-06T11:22:59.496Z,26.56
2018-04-06T11:23:59.648Z,26.26
2018-04-06T11:24:59.773Z,26.64
2018-04-06T11:25:59.918Z,27.42
2018-04-06T11:27:00.061Z,27.90
2018-04-06T11:28:00.220Z,25.99
2018-04-06T11:29:00.372Z,25.51
2018-04-06T11:30:00.519Z,27.22
2018-04-06T11:31:00.673Z,26.95
2018-04-06T11:32:00.830Z,25.50
2018-04-06T11:33:00.977Z,25.59
2018-04-06T11:34:01.132Z,26.45
2018-04-06T11:35:01.285Z,26.46
2018-04-06T11:36:01.439Z,27.14
2018-04-06T11:37:01.603Z,27.52
2018-04-06T11:38:01.801Z,27.23
2018-04-06T11:39:01.900Z,26.85
2018-04-06T11:40:02.053Z,26.56
2018-04-06T11:41:02.205Z,26.75
2018-04-06T11:42:02.365Z,27.90
2018-04-06T11:43:02.518Z,26.09
2018-04-06T11:44:02.671Z,25.13
2018-04-06T11:45:02.824Z,25.51
2018-04-06T11:46:02.978Z,25.80
2018-04-06T11:47:03.132Z,25.32
2018-04-06T11:48:03.289Z,23.50
2018-04-06T11:49:03.441Z,24.37
2018-04-06T11:50:03.596Z,25.60
2018-04-06T11:51:03.751Z,24.65
2018-04-06T11:52:03.904Z,22.36
2018-04-06T11:53:04.065Z,23.23
2018-04-06T11:54:04.240Z,22.18
2018-04-06T11:55:04.364Z,23.12
2018-04-06T11:56:04.519Z,24.19
2018-04-06T11:57:04.667Z,22.36
2018-04-06T11:58:04.821Z,23.23
2018-04-06T11:59:04.974Z,22.18
2018-04-06T12:00:05.132Z,20.75
2018-04-06T12:01:05.282Z,22.56
2018-04-06T12:02:05.437Z,23.90
2018-04-06T12:03:05.589Z,24.38
2018-04-06T12:04:05.747Z,24.48
2018-04-06T12:05:05.901Z,24.09
2018-04-06T12:06:06.057Z,23.80
2018-04-06T12:07:06.208Z,22.18
2018-04-06T12:08:06.360Z,22.56
2018-04-06T12:09:06.516Z,23.13
2018-04-06T12:10:06.761Z,23.52
2018-04-06T12:11:06.815Z,23.33
2018-04-06T12:12:06.968Z,23.41
2018-04-06T12:13:07.149Z,23.61
2018-04-06T12:14:07.277Z,23.42
2018-04-06T12:15:07.431Z,24.28
2018-04-06T12:16:07.586Z,23.13
2018-04-06T12:17:07.740Z,23.42
2018-04-06T12:18:07.899Z,25.43
2018-04-06T12:19:08.088Z,26.57
2018-04-06T12:20:08.221Z,25.82
2018-04-06T12:21:08.345Z,24.01
2018-04-06T12:22:08.502Z,23.14
2018-04-06T12:23:08.653Z,23.80
2018-04-06T12:24:08.811Z,23.53
2018-04-06T12:25:08.964Z,23.91
2018-04-06T12:26:09.122Z,25.15
2018-04-06T12:27:09.276Z,26.48
2018-04-06T12:28:09.429Z,26.67
2018-04-06T12:29:09.583Z,26.50
2018-04-06T12:30:09.737Z,25.73
2018-04-06T12:31:09.893Z,24.77
2018-04-06T12:32:10.048Z,24.01
2018-04-06T12:33:10.202Z,24.39
2018-04-06T12:34:10.358Z,24.49
2018-04-06T12:35:10.558Z,24.59
2018-04-06T12:36:10.697Z,26.03
2018-04-06T12:37:10.832Z,25.55
2018-04-06T12:38:11.110Z,25.54
2018-04-06T12:39:11.181Z,26.01
2018-04-06T12:40:11.389Z,24.19
2018-04-06T12:41:11.494Z,25.74
2018-04-06T12:42:11.605Z,24.79
2018-04-06T12:43:11.776Z,22.76
2018-04-06T12:44:11.953Z,23.83
2018-04-06T12:45:12.059Z,24.29
2018-04-06T12:46:12.201Z,24.19
2018-04-06T12:47:12.370Z,23.82
2018-04-06T12:48:12.516Z,25.15
2018-04-06T12:49:12.632Z,24.77
2018-04-06T12:50:12.797Z,24.29
2018-04-06T12:51:12.968Z,23.62
2018-04-06T12:52:13.079Z,25.55
2018-04-06T12:53:13.273Z,24.88
2018-04-06T12:54:13.401Z,23.84